Time;durP1;ratioP1;P1;durP2;ratioP2;P2;SDS_P1;SDS_P2;PMS_P1;PMS_P2;Temp;Humidity;BMP_temperature;BMP_pressure;BME280_temperature;BME280_humidity;BME280_pressure;Samples;Min_cycle;Max_cycle;Signal;HPM_P1;HPM_P2
2021/12/20 00:07:42;;;;;;;2.67;2.07;;;4.40;99.90;;;;;;20926670;28;20224;-67
2021/12/20 00:17:45;;;;;;;3.97;2.07;;;4.50;99.90;;;;;;20942500;28;20246;-67
2021/12/20 00:27:47;;;;;;;3.77;2.30;;;;;;;;;;20942277;28;20221;-67
2021/12/20 00:48:09;;;;;;;2.87;1.97;;;;;;;;;;20960139;28;20272;-67
2021/12/20 00:58:11;;;;;;;2.17;1.60;;;;;;;;;;20939443;28;20247;-67
2021/12/20 01:08:14;;;;;;;4.27;2.07;;;4.50;99.90;;;;;;20955101;28;20780;-67
2021/12/20 01:18:17;;;;;;;3.93;2.10;;;;;;;;;;20955305;28;20237;-67
2021/12/20 01:28:20;;;;;;;3.67;1.90;;;;;;;;;;20939262;28;20692;-67
2021/12/20 01:38:23;;;;;;;2.67;1.73;;;4.20;99.90;;;;;;20954505;28;20270;-67
2021/12/20 01:48:24;;;;;;;2.77;1.63;;;;;;;;;;20954390;28;20286;-67
2021/12/20 01:58:27;;;;;;;2.47;1.67;;;4.40;99.90;;;;;;20937691;28;20250;-67
2021/12/20 02:08:29;;;;;;;2.73;1.77;;;;;;;;;;20937541;28;20213;-67
2021/12/20 02:18:32;;;;;;;3.50;2.30;;;;;;;;;;20921101;22;20233;-77
2021/12/20 02:28:41;;;;;;;3.27;2.00;;;;;;;;;;20847611;28;20286;-78
2021/12/20 02:38:44;;;;;;;2.73;1.50;;;4.40;99.90;;;;;;20901446;28;20676;-79
2021/12/20 02:48:46;;;;;;;3.07;1.40;;;;;;;;;;20803342;28;20272;-79
2021/12/20 02:58:47;;;;;;;2.73;1.90;;;;;;;;;;20819403;28;20236;-82
2021/12/20 03:08:51;;;;;;;2.33;1.60;;;;;;;;;;20817944;28;20272;-79
2021/12/20 03:18:53;;;;;;;1.80;1.30;;;;;;;;;;20868740;28;20264;-78
2021/12/20 03:28:55;;;;;;;3.90;1.73;;;;;;;;;;20938900;28;20238;-79
2021/12/20 03:38:56;;;;;;;3.27;1.87;;;;;;;;;;20881416;28;20695;-79
2021/12/20 03:48:59;;;;;;;4.13;1.97;;;;;;;;;;20993915;28;20217;-80
2021/12/20 03:59:01;;;;;;;3.93;2.23;;;4.50;99.90;;;;;;20997776;28;20213;-79
2021/12/20 04:09:05;;;;;;;2.33;1.70;;;4.30;99.90;;;;;;20961544;28;20236;-82
2021/12/20 04:19:07;;;;;;;5.13;2.00;;;;;;;;;;20995445;28;20223;-79
2021/12/20 04:29:09;;;;;;;4.10;2.10;;;;;;;;;;20870288;28;20269;-78
2021/12/20 04:39:15;;;;;;;3.43;2.47;;;;;;;;;;20902813;28;20772;-77
2021/12/20 04:49:17;;;;;;;2.50;1.80;;;;;;;;;;20906835;28;20222;-78
2021/12/20 04:59:19;;;;;;;3.73;2.13;;;;;;;;;;20912664;28;20267;-80
2021/12/20 05:09:21;;;;;;;3.37;2.27;;;;;;;;;;20874416;28;20271;-78
2021/12/20 05:19:22;;;;;;;2.10;1.80;;;;;;;;;;20891311;28;20776;-78
2021/12/20 05:29:25;;;;;;;2.00;1.20;;;;;;;;;;20887412;28;20237;-79
2021/12/20 05:39:27;;;;;;;3.30;2.03;;;;;;;;;;20890268;28;20251;-78
2021/12/20 05:49:30;;;;;;;4.43;2.00;;;;;;;;;;20889819;28;20252;-78
2021/12/20 05:59:32;;;;;;;3.07;1.77;;;;;;;;;;20918164;28;20214;-80
2021/12/20 06:09:34;;;;;;;3.87;2.00;;;;;;;;;;20905798;28;20225;-80
2021/12/20 06:19:35;;;;;;;2.23;1.60;;;;;;;;;;20888019;28;20209;-80
2021/12/20 06:29:37;;;;;;;3.80;2.17;;;;;;;;;;20898655;28;20256;-78
2021/12/20 06:39:39;;;;;;;1.90;1.50;;;;;;;;;;20907395;28;20210;-79
2021/12/20 06:49:41;;;;;;;3.07;2.27;;;;;;;;;;20870748;28;20222;-80
2021/12/20 06:59:43;;;;;;;2.30;1.90;;;;;;;;;;20918276;28;20198;-81
2021/12/20 07:09:44;;;;;;;3.37;2.57;;;;;;;;;;20899289;28;20225;-80
2021/12/20 07:19:46;;;;;;;3.33;2.50;;;;;;;;;;20866760;28;20252;-79
2021/12/20 07:29:48;;;;;;;2.67;1.60;;;;;;;;;;20882054;28;20221;-79
2021/12/20 07:39:50;;;;;;;3.00;2.03;;;;;;;;;;20880806;28;20218;-79
2021/12/20 07:49:52;;;;;;;5.63;3.37;;;;;;;;;;20897138;28;20217;-80
2021/12/20 07:59:54;;;;;;;3.33;1.97;;;;;;;;;;20860461;28;20226;-78
2021/12/20 08:09:56;;;;;;;2.50;1.60;;;;;;;;;;20912447;28;20275;-77
2021/12/20 08:19:58;;;;;;;3.40;2.30;;;;;;;;;;20942215;28;20221;-79
2021/12/20 08:30:00;;;;;;;3.73;2.13;;;;;;;;;;20879265;28;20230;-79
2021/12/20 08:40:02;;;;;;;3.67;2.30;;;;;;;;;;20873939;28;20197;-79
2021/12/20 08:50:08;;;;;;;3.40;1.77;;;4.50;99.90;;;;;;20888578;28;20275;-79
2021/12/20 09:00:13;;;;;;;3.20;2.03;;;;;;;;;;20908089;28;20692;-80
2021/12/20 09:10:15;;;;;;;3.13;2.07;;;;;;;;;;20835384;28;20214;-79
2021/12/20 09:20:21;;;;;;;4.00;2.27;;;;;;;;;;20906369;28;20599;-79
2021/12/20 09:30:24;;;;;;;3.10;2.20;;;;;;;;;;20894616;28;20225;-78
2021/12/20 09:40:32;;;;;;;3.53;1.77;;;;;;;;;;20865809;28;20219;-80
2021/12/20 09:50:35;;;;;;;4.37;2.37;;;;;;;;;;20901721;28;20264;-79
2021/12/20 10:00:37;;;;;;;2.67;2.00;;;;;;;;;;20870557;28;20218;-78
2021/12/20 10:10:41;;;;;;;3.23;1.87;;;;;;;;;;20884168;28;20304;-77
2021/12/20 10:20:55;;;;;;;3.50;2.10;;;5.50;99.90;;;;;;20888437;28;20234;-78
2021/12/20 10:31:05;;;;;;;4.67;2.50;;;5.50;99.90;;;;;;20912195;28;20279;-79
2021/12/20 10:41:07;;;;;;;5.03;2.43;;;;;;;;;;20931544;28;20544;-78
2021/12/20 10:51:24;;;;;;;3.77;1.50;;;5.70;99.90;;;;;;20912723;28;20221;-77
2021/12/20 11:11:54;;;;;;;2.70;1.70;;;6.10;99.90;;;;;;20921683;28;20268;-78
2021/12/20 11:21:57;;;;;;;3.30;1.83;;;;;;;;;;20933646;28;20290;-78
2021/12/20 11:32:00;;;;;;;3.73;2.77;;;;;;;;;;20998649;28;20225;-78
2021/12/20 11:42:02;;;;;;;4.07;2.00;;;6.70;99.90;;;;;;20964613;28;20217;-77
2021/12/20 11:52:05;;;;;;;3.67;2.13;;;;;;;;;;20998053;28;20233;-78
2021/12/20 12:02:19;;;;;;;2.80;1.63;;;;;;;;;;20996354;28;20235;-77
2021/12/20 12:12:25;;;;;;;3.07;1.83;;;;;;;;;;20996232;28;20259;-78
2021/12/20 12:22:27;;;;;;;1.40;1.00;;;;;;;;;;20921659;28;20287;-79
2021/12/20 12:32:29;;;;;;;2.83;1.13;;;;;;;;;;20907711;28;20616;-79
2021/12/20 12:42:46;;;;;;;2.17;0.93;;;5.60;99.90;;;;;;20869565;28;20741;-78
2021/12/20 12:52:50;;;;;;;2.30;1.20;;;;;;;;;;20960428;28;20783;-78
2021/12/20 13:02:54;;;;;;;1.23;0.60;;;;;;;;;;20939426;28;20213;-78
2021/12/20 13:13:27;;;;;;;9.60;1.23;;;6.10;99.90;;;;;;20938852;28;20358;-78
2021/12/20 13:23:31;;;;;;;8.53;1.17;;;;;;;;;;20971450;28;20221;-79
2021/12/20 13:33:36;;;;;;;1.70;0.80;;;6.30;99.90;;;;;;21002208;28;20213;-78
2021/12/20 13:43:41;;;;;;;2.17;0.77;;;;;;;;;;20959875;28;20267;-78
2021/12/20 13:53:43;;;;;;;0.40;0.30;;;;;;;;;;20855021;28;20241;-79
2021/12/20 14:03:44;;;;;;;3.00;0.70;;;;;;;;;;20887241;28;20272;-79
2021/12/20 14:13:46;;;;;;;3.17;0.90;;;;;;;;;;20870345;28;20210;-79
2021/12/20 14:23:49;;;;;;;2.13;0.80;;;;;;;;;;20912970;28;20224;-78
2021/12/20 14:33:53;;;;;;;0.83;0.70;;;5.50;99.90;;;;;;20983154;28;20225;-77
2021/12/20 14:43:57;;;;;;;1.10;0.93;;;;;;;;;;21001396;28;20213;-79
2021/12/20 14:54:20;;;;;;;4.80;0.70;;;5.40;99.90;;;;;;20961361;28;20365;-77
2021/12/20 15:04:22;;;;;;;0.93;0.40;;;;;;;;;;21002382;28;20243;-78
2021/12/20 15:14:25;;;;;;;1.90;1.03;;;4.20;99.90;;;;;;20980485;28;20254;-78
2021/12/20 15:24:27;;;;;;;2.40;1.20;;;;;;;;;;20963135;28;20267;-80
2021/12/20 15:34:29;;;;;;;3.37;0.87;;;;;;;;;;20908202;28;20237;-78
2021/12/20 15:44:31;;;;;;;1.20;0.60;;;4.90;99.90;;;;;;20858261;28;20264;-77
2021/12/20 15:54:33;;;;;;;3.00;1.47;;;;;;;;;;20885329;28;20272;-78
2021/12/20 16:04:48;;;;;;;14.47;1.67;;;;;;;;;;20834123;28;20222;-77
2021/12/20 16:14:52;;;;;;;3.60;1.40;;;;;;;;;;20891800;28;20234;-79
2021/12/20 16:24:54;;;;;;;2.67;1.27;;;;;;;;;;20908538;28;20260;-78
2021/12/20 16:34:57;;;;;;;1.37;0.63;;;;;;;;;;20900492;28;20221;-79
2021/12/20 16:44:59;;;;;;;1.43;0.57;;;;;;;;;;20896790;28;20252;-78
2021/12/20 16:55:01;;;;;;;2.60;1.00;;;;;;;;;;20800411;28;20234;-80
2021/12/20 17:05:08;;;;;;;2.77;1.00;;;;;;;;;;20886012;28;20225;-80
2021/12/20 17:15:10;;;;;;;1.87;1.17;;;;;;;;;;20841905;28;20291;-80
2021/12/20 17:25:13;;;;;;;2.80;1.23;;;;;;;;;;20870317;28;20201;-79
2021/12/20 17:35:14;;;;;;;4.17;1.00;;;;;;;;;;20901901;28;20222;-79
2021/12/20 17:57:25;;;;;;;3.33;1.47;;;;;;;;;;21247487;27;20558;-66
2021/12/20 18:07:29;;;;;;;1.10;1.00;;;;;;;;;;21215147;27;20218;-66
2021/12/20 18:17:30;;;;;;;1.23;0.63;;;;;;;;;;21240153;27;20253;-66
2021/12/20 18:27:33;;;;;;;1.43;0.97;;;;;;;;;;21262225;27;20219;-66
2021/12/20 18:37:35;;;;;;;1.03;0.77;;;;;;;;;;21234002;27;20284;-66
2021/12/20 18:47:38;;;;;;;1.97;1.20;;;;;;;;;;21254101;27;20245;-66
2021/12/20 18:57:40;;;;;;;1.80;1.33;;;;;;;;;;21265219;27;20235;-66
2021/12/20 19:07:41;;;;;;;1.53;1.20;;;;;;;;;;21184938;27;20211;-67
2021/12/20 19:17:43;;;;;;;3.77;1.30;;;;;;;;;;21196735;27;20732;-66
2021/12/20 19:27:49;;;;;;;3.23;1.80;;;;;;;;;;21144206;28;20320;-66
2021/12/20 19:37:51;;;;;;;5.60;1.50;;;;;;;;;;21144286;28;20293;-66
2021/12/20 19:47:54;;;;;;;3.27;1.83;;;;;;;;;;21173616;27;20231;-66
2021/12/20 19:57:56;;;;;;;2.23;0.90;;;;;;;;;;21173753;27;20280;-66
2021/12/20 20:07:59;;;;;;;0.90;0.70;;;;;;;;;;21192442;27;20203;-66
2021/12/20 20:18:01;;;;;;;3.80;1.90;;;;;;;;;;21172762;22;20241;-70
2021/12/20 20:28:03;;;;;;;1.70;1.03;;;;;;;;;;20974289;28;20728;-69
2021/12/20 20:38:05;;;;;;;3.27;1.53;;;;;;;;;;20974902;28;20217;-68
2021/12/20 20:48:08;;;;;;;1.90;1.13;;;;;;;;;;20969756;28;20907;-70
2021/12/20 20:58:11;;;;;;;1.27;1.07;;;;;;;;;;20950599;28;20217;-69
2021/12/20 21:08:12;;;;;;;1.10;0.80;;;;;;;;;;20968434;28;20205;-69
2021/12/20 21:18:14;;;;;;;2.40;1.90;;;;;;;;;;20958043;28;20557;-69
2021/12/20 21:28:16;;;;;;;1.27;1.00;;;;;;;;;;20967777;28;20250;-69
2021/12/20 21:38:18;;;;;;;1.83;1.47;;;;;;;;;;20974971;28;20233;-69
2021/12/20 21:48:21;;;;;;;1.87;1.60;;;;;;;;;;20972854;28;20254;-69
2021/12/20 21:58:23;;;;;;;3.30;2.13;;;;;;;;;;20972845;28;20212;-69
2021/12/20 22:08:25;;;;;;;5.73;1.50;;;;;;;;;;20974370;28;20205;-69
2021/12/20 22:18:27;;;;;;;2.73;1.60;;;;;;;;;;20974853;28;20632;-69
2021/12/20 22:28:29;;;;;;;0.90;0.80;;;;;;;;;;20962982;28;20660;-69
2021/12/20 22:38:31;;;;;;;0.40;0.40;;;;;;;;;;20973524;28;20209;-68
2021/12/20 22:48:33;;;;;;;2.00;1.23;;;;;;;;;;20998135;28;20267;-68
2021/12/20 22:58:34;;;;;;;1.23;1.07;;;;;;;;;;20998111;28;20209;-68
2021/12/20 23:08:36;;;;;;;1.97;1.77;;;1.60;99.90;;;;;;20997395;28;20209;-68
2021/12/20 23:18:38;;;;;;;1.23;0.80;;;;;;;;;;20996473;28;20243;-68
2021/12/20 23:28:40;;;;;;;2.67;0.77;;;;;;;;;;20974342;28;20205;-68
2021/12/20 23:38:48;;;;;;;1.43;0.57;;;;;;;;;;20995266;28;20225;-68
2021/12/20 23:48:50;;;;;;;0.90;0.57;;;;;;;;;;20994462;28;20229;-68
2021/12/20 23:58:52;;;;;;;0.87;0.77;;;;;;;;;;20993890;28;20217;-68
